Latest Weather Observations for Glen Innes Airport

IDN60801

Issued at 6:42 pm EDT Sunday 15 December 2019 (issued every 10 minutes, with the page automatically refreshed every 10 minutes)

About weather observations | Map of weather stations | Latest weather observations for NSW | Other Formats
Station Details ID: 056243 Name: GLEN INNES AIRPORT AWS Lat: -29.68 Lon: 151.69 Height: 1044.3 m
Data from the previous 72 hours. | See also: Recent months at Glen Innes Airport
Date/Time
EDT
Temp
°C
App
Temp
°C
Dew
Point
°C
Rel
Hum
%
Delta-T
°C
Wind Press
QNH
hPa
Press
MSL
hPa
Rain since
9am
mm
Dir  Spd
km/h
Gust
km/h
Spd
kts
Gust
kts
15/06:30pm 28.8 23.5 2.9 19 13.6 WSW 20 26 11 14 1012.7 1007.6 0.0
15/06:00pm 29.1 23.8 1.6 17 14.1 SW 19 26 10 14 1012.5 1007.3 0.0
15/05:30pm 29.8 23.8 1.3 16 14.6 WSW 22 33 12 18 1012.4 1007.2 0.0
15/05:00pm 29.6 23.2 1.1 16 14.6 WSW 24 32 13 17 1012.3 1007.1 0.0
15/04:30pm 30.4 24.0 0.9 15 15.1 SW 24 37 13 20 1012.3 1007.1 0.0
15/04:00pm 30.1 23.5 -0.3 14 15.2 W 24 35 13 19 1012.4 1007.2 0.0
15/03:30pm 30.6 23.3 0.1 14 15.4 WSW 28 39 15 21 1012.6 1007.4 0.0
15/03:00pm 30.2 24.4 2.5 17 14.5 WNW 22 37 12 20 1012.7 1007.6 0.0
15/02:30pm 29.8 24.8 4.4 20 13.7 W 20 35 11 19 1013.1 1007.9 0.0
15/02:00pm 28.7 24.5 7.3 26 12.1 W 19 26 10 14 1013.3 1008.1 0.0
15/01:30pm 29.2 23.6 5.3 22 13.1 W 24 37 13 20 1013.6 1008.5 0.0
15/01:00pm 28.7 23.5 5.5 23 12.7 W 22 43 12 23 1013.7 1008.6 0.0
15/12:30pm 28.1 23.5 5.6 24 12.3 W 19 37 10 20 1014.1 1008.9 0.0
15/12:00pm 28.5 23.3 7.1 26 12.0 W 24 37 13 20 1014.7 1009.6 0.0
15/11:30am 27.1 22.6 7.0 28 11.2 WNW 20 28 11 15 1015.0 1009.8 0.0
15/11:00am 26.6 23.3 6.6 28 11.0 WNW 13 22 7 12 1015.1 1009.9 0.0
15/10:30am 24.6 23.1 13.2 49 6.9 NNW 13 17 7 9 1015.0 1009.8 0.0
15/10:00am 23.4 23.4 14.1 56 5.7 W 7 9 4 5 1015.4 1010.3 0.0
15/09:30am 22.9 23.0 14.5 59 5.2 WSW 7 13 4 7 1015.6 1010.5 0.0
15/09:00am 21.4 22.1 16.1 72 3.3 SSE 7 11 4 6 1015.4 1010.3 0.0
15/08:30am 19.8 20.2 16.4 81 2.1 ESE 9 13 5 7 1015.4 1010.3 0.0
15/08:06am 18.2 18.3 16.5 90 1.1 SE 11 15 6 8 1015.4 1010.3 0.0
15/08:00am 18.0 17.6 16.3 90 1.1 SE 13 15 7 8 1015.3 1010.1 0.0
15/07:54am 17.6 17.6 16.3 92 0.8 SE 11 15 6 8 1015.3 1010.1 0.0
15/07:30am 16.5 16.0 16.0 97 0.3 SE 13 17 7 9 1015.2 1010.0 0.0
15/07:00am 16.0 15.0 15.7 98 0.2 SE 15 17 8 9 1014.8 1009.7 0.0
15/06:32am 15.6 14.4 15.1 97 0.3 SE 15 20 8 11 1014.8 1009.7 0.0
15/06:30am 15.6 14.4 15.1 97 0.3 SE 15 20 8 11 1014.7 1009.6 0.0
15/06:00am 15.4 14.9 14.9 97 0.3 SE 11 15 6 8 1014.4 1009.2 0.0
15/05:34am 15.2 14.2 14.6 96 0.4 SE 13 15 7 8 1014.2 1009.0 0.0
15/05:30am 15.4 14.5 14.9 97 0.3 SE 13 15 7 8 1014.2 1009.0 0.0
15/05:28am 15.4 14.5 14.9 97 0.3 SE 13 15 7 8 1014.1 1008.9 0.0
15/05:00am 14.9 13.8 14.3 96 0.4 SE 13 15 7 8 1014.1 1008.9 0.0
15/04:44am 14.8 14.0 14.0 95 0.5 ESE 11 13 6 7 1014.0 1008.8 0.0
15/04:30am 15.3 14.9 14.2 93 0.7 ESE 9 11 5 6 1014.1 1008.9 0.0
15/04:00am 16.2 15.9 15.4 95 0.5 SE 11 13 6 7 1014.0 1008.8 0.0
15/03:30am 16.5 15.8 15.4 93 0.7 SE 13 17 7 9 1013.9 1008.7 0.0
15/03:00am 17.0 16.2 16.0 94 0.6 SE 15 20 8 11 1013.9 1008.7 0.0
15/02:30am 16.6 15.2 15.6 94 0.6 SSE 17 20 9 11 1013.9 1008.7 0.0
15/02:00am 16.8 16.3 15.8 94 0.6 SE 13 17 7 9 1014.1 1008.9 0.0
15/01:30am 16.9 16.4 15.9 94 0.6 SE 13 17 7 9 1014.2 1009.0 0.0
15/01:04am 17.0 17.2 15.7 92 0.8 SE 9 13 5 7 1014.3 1009.1 0.0
15/01:00am 17.2 17.1 16.1 93 0.7 SE 11 15 6 8 1014.4 1009.2 0.0
15/12:30am 17.6 16.9 16.3 92 0.8 ESE 15 19 8 10 1014.5 1009.4 0.0
15/12:00am 17.9 16.7 16.1 89 1.1 ESE 17 20 9 11 1014.7 1009.6 0.0
 
Date/Time
EDT
Temp
°C
App
Temp
°C
Dew
Point
°C
Rel
Hum
%
Delta-T
°C
Wind Press
QNH
hPa
Press
MSL
hPa
Rain since
9am
mm
Dir  Spd
km/h
Gust
km/h
Spd
kts
Gust
kts
14/11:45pm 18.1 17.0 16.3 89 1.1 ESE 17 22 9 12 1014.8 1009.7 0.0
14/11:30pm 18.2 16.7 16.4 89 1.1 ESE 19 24 10 13 1015.0 1009.8 0.0
14/11:00pm 18.5 17.5 16.5 88 1.3 ESE 17 22 9 12 1015.1 1009.9 0.0
14/10:30pm 19.0 17.9 16.4 85 1.6 ESE 17 22 9 12 1014.8 1009.7 0.0
14/10:00pm 19.3 17.6 15.8 80 2.2 ESE 19 24 10 13 1014.6 1009.5 0.0
14/09:30pm 20.4 17.9 14.1 67 3.8 SE 20 30 11 16 1014.4 1009.2 0.0
14/09:00pm 21.3 18.6 8.9 45 6.9 S 13 17 7 9 1013.9 1008.7 0.0
14/08:30pm 21.9 20.5 8.8 43 7.3 WSW 6 6 3 3 1013.5 1008.3 0.0
14/08:00pm 23.2 21.5 8.5 39 8.2 W 7 9 4 5 1013.2 1008.0 0.0
14/07:30pm 24.9 22.7 8.0 34 9.4 WSW 9 17 5 9 1012.9 1007.7 0.0
14/07:00pm 26.3 23.1 6.9 29 10.7 SW 13 15 7 8 1012.5 1007.3 0.0
14/06:30pm 27.3 23.4 7.2 28 11.2 WSW 17 22 9 12 1012.4 1007.2 0.0
14/06:00pm 27.3 23.2 6.1 26 11.6 WSW 17 20 9 11 1012.3 1007.1 0.0
14/05:30pm 28.0 24.8 6.7 26 11.8 SSW 13 24 7 13 1012.1 1006.9 0.0
14/05:00pm 28.5 24.0 7.1 26 12.0 W 20 32 11 17 1012.2 1007.0 0.0
14/04:30pm 28.3 25.0 8.1 28 11.5 SW 15 22 8 12 1012.4 1007.2 0.0
14/04:00pm 27.4 25.8 10.2 34 10.1 WNW 9 19 5 10 1012.7 1007.6 0.0
14/03:30pm 26.8 24.0 8.7 32 10.3 WNW 13 20 7 11 1013.0 1007.8 0.0
14/03:00pm 26.2 22.4 9.1 34 9.8 W 19 26 10 14 1013.2 1008.0 0.0
14/02:30pm 26.8 22.3 8.7 32 10.3 W 22 39 12 21 1013.5 1008.3 0.0
14/02:00pm 26.6 22.1 8.6 32 10.3 W 22 32 12 17 1013.6 1008.5 0.0
14/01:30pm 25.7 21.8 9.5 36 9.3 WNW 20 30 11 16 1013.9 1008.7 0.0
14/01:00pm 25.3 22.1 10.0 38 8.9 W 17 30 9 16 1014.3 1009.1 0.0
14/12:30pm 25.2 21.9 9.5 37 9.0 W 17 32 9 17 1014.5 1009.4 0.0
14/12:00pm 24.2 21.8 11.5 45 7.5 NW 15 24 8 13 1014.7 1009.6 0.0
14/11:30am 23.9 21.6 11.6 46 7.3 NW 15 22 8 12 1015.0 1009.8 0.0
14/11:00am 23.2 21.6 13.9 56 5.7 WNW 15 20 8 11 1015.1 1009.9 0.0
14/10:30am 21.9 21.3 13.5 59 5.1 N 9 19 5 10 1015.1 1009.9 0.0
14/10:00am 21.0 21.0 15.1 69 3.7 NW 9 15 5 8 1015.2 1010.0 0.0
14/09:30am 19.8 19.3 14.8 73 3.1 N 11 15 6 8 1015.3 1010.1 0.0
14/09:00am 18.8 18.7 13.9 73 2.9 NNE 7 11 4 6 1015.5 1010.4 4.4
14/08:58am 18.9 19.0 14.4 75 2.7 NNE 7 13 4 7 1015.5 1010.4 4.4
14/08:30am 18.3 17.8 15.0 81 2.0 NE 11 15 6 8 1015.4 1010.3 4.4
14/08:12am 17.2 17.6 15.2 88 1.2 ENE 7 9 4 5 1015.4 1010.3 4.4
14/08:00am 17.2 17.3 15.4 89 1.1 E 9 11 5 6 1015.4 1010.3 4.4
14/07:30am 16.2 16.2 15.2 94 0.6 ESE 9 11 5 6 1015.3 1010.1 4.4
14/07:22am 16.1 16.1 15.3 95 0.5 ESE 9 11 5 6 1015.3 1010.1 4.4
14/07:03am 15.5 16.1 15.2 98 0.2 ESE 6 9 3 5 1015.1 1009.9 4.4
14/07:00am 15.1 15.5 14.8 98 0.2 ESE 6 9 3 5 1015.1 1009.9 4.4
14/06:50am 14.6 14.6 14.3 98 0.2 SE 7 11 4 6 1015.1 1009.9 4.4
14/06:30am 13.8 13.7 13.3 97 0.3 SE 6 7 3 4 1014.8 1009.7 4.4
14/06:00am 13.1 12.2 12.5 96 0.3 ESE 9 11 5 6 1014.5 1009.4 4.4
14/05:30am 13.7 13.3 12.9 95 0.5 ESE 7 9 4 5 1014.3 1009.1 4.2
14/05:19am 14.1 13.4 13.3 95 0.5 SE 9 11 5 6 1014.3 1009.1 4.2
14/05:00am 14.8 14.1 14.2 96 0.4 ESE 11 13 6 7 1014.4 1009.2 4.2
14/04:30am 15.0 14.3 14.2 95 0.5 ESE 11 15 6 8 1014.2 1009.0 4.2
14/04:00am 15.3 14.7 14.7 96 0.4 ESE 11 15 6 8 1014.1 1008.9 4.2
14/03:30am 15.5 15.0 14.9 96 0.4 ESE 11 13 6 7 1014.4 1009.2 4.2
14/03:11am 15.6 14.8 15.0 96 0.4 ESE 13 15 7 8 1014.5 1009.4 4.2
14/03:00am 15.6 14.8 15.0 96 0.4 ESE 13 15 7 8 1014.6 1009.5 4.2
14/02:30am 15.4 14.9 14.8 96 0.4 ESE 11 15 6 8 1014.7 1009.6 4.2
14/02:00am 15.3 14.3 14.7 96 0.4 SE 13 15 7 8 1014.8 1009.7 4.2
14/01:30am 14.8 14.1 14.2 96 0.4 SE 11 15 6 8 1015.0 1009.8 4.2
14/01:00am 14.9 13.7 14.1 95 0.5 ESE 13 13 7 7 1015.4 1010.3 4.2
14/12:57am 14.9 13.8 14.3 96 0.4 ESE 13 15 7 8 1015.4 1010.3 4.2
14/12:30am 14.7 13.9 13.9 95 0.5 ESE 11 13 6 7 1015.6 1010.5 4.2
14/12:00am 15.1 14.3 14.1 94 0.6 ESE 11 13 6 7 1015.8 1010.7 4.2
 
Date/Time
EDT
Temp
°C
App
Temp
°C
Dew
Point
°C
Rel
Hum
%
Delta-T
°C
Wind Press
QNH
hPa
Press
MSL
hPa
Rain since
9am
mm
Dir  Spd
km/h
Gust
km/h
Spd
kts
Gust
kts
13/11:30pm 15.7 14.3 14.6 93 0.7 E 15 19 8 10 1015.7 1010.6 4.2
13/11:00pm 15.7 14.7 14.7 94 0.6 E 13 15 7 8 1016.1 1010.9 4.2
13/10:48pm 15.8 14.5 14.7 93 0.7 E 15 19 8 10 1016.0 1010.8 4.2
13/10:30pm 16.1 14.5 15.0 93 0.7 E 17 26 9 14 1015.8 1010.7 4.2
13/10:04pm 16.2 14.4 15.4 95 0.5 ESE 19 24 10 13 1015.6 1010.5 4.2
13/10:00pm 16.1 14.2 15.3 95 0.5 ESE 19 24 10 13 1015.5 1010.4 4.2
13/09:30pm 16.2 14.3 15.2 94 0.6 SE 19 20 10 11 1015.1 1009.9 4.2
13/09:00pm 16.5 15.8 15.4 93 0.7 SE 13 17 7 9 1014.6 1009.5 4.0
13/08:30pm 17.0 16.4 15.7 92 0.8 SE 13 17 7 9 1014.5 1009.4 4.0
13/08:00pm 17.2 15.6 15.9 92 0.8 SE 19 24 10 13 1014.3 1009.1 4.0
13/07:30pm 17.2 16.8 16.2 94 0.6 E 13 19 7 10 1014.4 1009.2 4.0
13/07:00pm 17.2 16.7 15.9 92 0.8 SE 13 20 7 11 1014.7 1009.6 2.4
13/06:30pm 17.7 14.3 15.7 88 1.2 E 28 35 15 19 1013.6 1008.5 0.6
13/06:00pm 18.9 16.8 14.8 77 2.5 SE 19 24 10 13 1014.3 1009.1 0.0
13/05:30pm 19.4 17.7 14.6 74 2.9 E 17 22 9 12 1013.1 1007.9 0.0
13/05:00pm 20.3 17.7 14.9 71 3.3 E 22 26 12 14 1013.5 1008.3 0.0
13/04:30pm 21.2 19.1 15.3 69 3.7 ESE 20 28 11 15 1013.7 1008.6 0.0
13/04:00pm 19.1 16.5 14.8 76 2.6 ESE 22 30 12 16 1014.0 1008.8 0.0
13/03:30pm 19.1 16.2 15.0 77 2.5 ESE 24 30 13 16 1014.4 1009.2 0.0
13/03:00pm 19.4 16.1 14.9 75 2.8 ESE 26 33 14 18 1014.4 1009.2 0.0
13/02:30pm 20.5 16.9 14.2 67 3.8 ESE 26 33 14 18 1014.5 1009.4 0.0
13/02:00pm 22.3 18.4 14.4 61 4.9 ESE 28 37 15 20 1014.2 1009.0 0.0
13/01:30pm 23.5 20.9 14.8 58 5.4 ENE 22 33 12 18 1014.8 1009.7 0.0
13/01:00pm 23.4 20.4 14.9 59 5.3 E 24 33 13 18 1015.3 1010.1 0.0
13/12:30pm 22.7 19.9 14.3 59 5.2 E 22 33 12 18 1015.7 1010.6 0.0
13/12:00pm 21.7 18.6 14.6 64 4.4 E 24 35 13 19 1015.8 1010.7 0.0
13/11:30am 22.1 19.3 14.2 61 4.8 E 22 35 12 19 1016.0 1010.8 0.0
13/11:00am 21.4 18.3 14.6 65 4.2 E 24 30 13 16 1016.1 1010.9 0.0
13/10:30am 20.7 17.2 14.4 67 3.9 ESE 26 35 14 19 1016.3 1011.2 0.0
13/10:00am 20.9 17.9 15.9 73 3.1 E 26 32 14 17 1016.3 1011.2 0.0
13/09:44am 19.9 17.2 15.7 77 2.6 ESE 24 32 13 17 1016.4 1011.3 0.0
13/09:30am 19.4 16.1 15.1 76 2.6 E 26 32 14 17 1016.5 1011.4 0.0
13/09:00am 18.6 16.6 15.5 82 1.9 E 20 26 11 14 1016.7 1011.6 0.0
13/08:30am 17.8 16.0 15.4 86 1.5 E 19 24 10 13 1016.6 1011.5 0.0
13/08:00am 17.6 15.3 15.6 88 1.2 E 22 28 12 15 1016.4 1011.3 0.0
13/07:30am 17.3 14.9 15.5 89 1.1 E 22 28 12 15 1016.2 1011.0 0.0
13/07:00am 17.0 14.3 15.5 91 0.9 E 24 32 13 17 1015.8 1010.7 0.0
13/06:30am 16.8 14.1 15.5 92 0.8 E 24 32 13 17 1015.6 1010.5 0.0
13/06:00am 16.7 14.4 15.6 93 0.7 E 22 28 12 15 1015.4 1010.3 0.0
13/05:30am 16.7 14.4 15.6 93 0.7 ESE 22 28 12 15 1015.3 1010.1 0.0
13/05:00am 17.1 15.3 15.6 91 0.9 ESE 19 24 10 13 1015.2 1010.0 0.0
13/04:30am 17.0 15.6 15.5 91 0.9 ESE 17 20 9 11 1015.0 1009.8 0.0
13/04:00am 16.8 15.1 15.7 93 0.7 ESE 19 22 10 12 1015.0 1009.8 0.0
13/03:30am 16.2 14.7 15.4 95 0.5 ESE 17 20 9 11 1015.1 1009.9 0.0
13/03:08am 16.1 14.1 15.0 93 0.7 E 19 20 10 11 1014.8 1009.7 0.0
13/03:00am 16.2 14.3 15.1 93 0.7 E 19 20 10 11 1014.8 1009.7 0.0
13/02:30am 16.7 14.3 15.4 92 0.8 ESE 22 28 12 15 1015.5 1010.4 0.0
13/02:00am 16.9 14.9 15.4 91 0.9 ESE 20 26 11 14 1015.8 1010.7 0.0
13/01:30am 17.0 13.9 15.5 91 0.9 ESE 26 30 14 16 1016.1 1010.9 0.0
13/01:00am 17.2 15.3 15.7 91 0.9 ESE 20 26 11 14 1016.4 1011.3 0.0
13/12:30am 17.2 15.0 15.9 92 0.8 ESE 22 26 12 14 1016.6 1011.5 0.0
13/12:00am 17.4 14.7 15.6 89 1.1 ESE 24 30 13 16 1016.7 1011.6 0.0
 
Date/Time
EDT
Temp
°C
App
Temp
°C
Dew
Point
°C
Rel
Hum
%
Delta-T
°C
Wind Press
QNH
hPa
Press
MSL
hPa
Rain since
9am
mm
Dir  Spd
km/h
Gust
km/h
Spd
kts
Gust
kts
12/11:30pm 18.3 15.9 15.4 83 1.8 E 22 30 12 16 1017.0 1011.8 0.0
12/11:00pm 18.2 15.8 15.5 84 1.7 E 22 28 12 15 1016.6 1011.5 0.0
12/10:30pm 18.4 15.7 15.6 84 1.7 E 24 33 13 18 1016.6 1011.5 0.0
12/10:00pm 18.6 15.6 15.8 84 1.7 ESE 26 37 14 20 1016.6 1011.5 0.0
12/09:30pm 18.7 16.2 16.1 85 1.6 E 24 33 13 18 1016.1 1010.9 0.0
12/09:00pm 18.7 15.4 16.1 85 1.6 ESE 28 33 15 18 1015.8 1010.7 0.0
12/08:30pm 19.0 14.8 16.2 84 1.8 ESE 33 46 18 25 1015.5 1010.4 0.0
12/08:08pm 19.5 14.9 16.2 81 2.1 E 35 46 19 25 1015.1 1009.9 0.0
12/08:00pm 19.8 14.9 16.3 80 2.2 E 37 48 20 26 1014.8 1009.7 0.0
12/07:30pm 21.1 16.4 15.9 72 3.3 ESE 35 46 19 25 1014.1 1008.9 0.0
12/07:00pm 26.1 24.3 13.2 44 7.9 SW 15 30 8 16 1012.9 1007.7 0.0

Other formats

Comma delimited format used in spreadsheet applications
http://www.bom.gov.au/fwo/IDN60801/IDN60801.94588.axf

JavaScript Object Notation format (JSON) in row-major order
http://www.bom.gov.au/fwo/IDN60801/IDN60801.94588.json

Data quality

Most of these data are generated automatically and are frequently updated. Quality checks on data are not normally performed. It is possible for incorrect values to appear. Refer to information at About Latest Weather Observations and please check the disclaimer before using these data.